CZUM/ZUM METAR and TAF weather

Enter ICAO airport designator
Station Type Date Time Source
CZUM METAR 2019/02/23 02:00 UTC NOAA

CZUM 230200Z AUTO 29015G26KT 9SM CLR M21/M26 A2992 RMK SLP186


Station Type Date Time Source
CZUM Decoded METAR 2019/02/23 02:00 UTC NOAA

Churchill Falls, Nfld., Canada (CZUM) 53-33N 064-06W 440M
Feb 22, 2019 - 09:00 PM EST / 2019.02.23 0200 UTC
Wind: from the WNW (290 degrees) at 17 MPH (15 KT) gusting to 30 MPH (26 KT):0
Visibility: 9 mile(s):0
Sky conditions: clear
Temperature: -5 F (-21 C)
Windchill: -27 F (-33 C):2
Dew Point: -14 F (-26 C)
Relative Humidity: 64%
Pressure (altimeter): 29.92 in. Hg (1013 hPa)
ob: CZUM 230200Z AUTO 29015G26KT 9SM CLR M21/M26 A2992 RMK SLP186
cycle: 2

Station Type Date Time Source
CZUM TAF 2019/02/23 02:42 UTC NOAA

TAF CZUM 230139Z 2302/2314 29010G20KT P6SM FEW025
TEMPO 2302/2314 BKN020
RMK FCST BASED ON AUTO OBS. NXT FCST BY 230800Z


Example: see airport list